sensor_id;sensor_type;location;lat;lon;timestamp;pressure;altitude;pressure_sealevel;temperature;humidity
13478;BME280;12598;62.382;17.344;2023-11-18T00:00:34;102120.16;;;14.35;17.47
13478;BME280;12598;62.382;17.344;2023-11-18T00:01:36;102123.84;;;14.32;17.87
13478;BME280;12598;62.382;17.344;2023-11-18T00:02:38;102126.59;;;14.31;17.93
13478;BME280;12598;62.382;17.344;2023-11-18T00:03:41;102132.00;;;14.29;17.81
13478;BME280;12598;62.382;17.344;2023-11-18T00:04:43;102120.97;;;14.21;17.66
13478;BME280;12598;62.382;17.344;2023-11-18T00:05:44;102127.72;;;14.27;17.81
13478;BME280;12598;62.382;17.344;2023-11-18T00:06:46;102119.81;;;14.25;17.87
13478;BME280;12598;62.382;17.344;2023-11-18T00:07:48;102124.31;;;14.25;18.01
13478;BME280;12598;62.382;17.344;2023-11-18T00:08:50;102114.69;;;14.22;17.59
13478;BME280;12598;62.382;17.344;2023-11-18T00:09:52;102117.34;;;14.22;18.14
13478;BME280;12598;62.382;17.344;2023-11-18T00:10:54;102110.41;;;14.20;17.65
13478;BME280;12598;62.382;17.344;2023-11-18T00:11:55;102098.38;;;14.13;18.03
13478;BME280;12598;62.382;17.344;2023-11-18T00:12:57;102101.13;;;14.11;17.80
13478;BME280;12598;62.382;17.344;2023-11-18T00:13:59;102117.59;;;14.18;17.72
13478;BME280;12598;62.382;17.344;2023-11-18T00:15:03;102100.97;;;14.14;18.05
13478;BME280;12598;62.382;17.344;2023-11-18T00:16:06;102101.13;;;14.11;17.73
13478;BME280;12598;62.382;17.344;2023-11-18T00:17:08;102090.00;;;14.05;18.02
13478;BME280;12598;62.382;17.344;2023-11-18T00:18:09;102094.28;;;14.07;17.62
13478;BME280;12598;62.382;17.344;2023-11-18T00:19:11;102092.41;;;14.09;17.79
13478;BME280;12598;62.382;17.344;2023-11-18T00:20:13;102103.03;;;14.09;18.15
13478;BME280;12598;62.382;17.344;2023-11-18T00:21:15;102101.31;;;14.08;17.74
13478;BME280;12598;62.382;17.344;2023-11-18T00:22:17;102101.31;;;14.08;17.76
13478;BME280;12598;62.382;17.344;2023-11-18T00:23:19;102102.28;;;14.07;17.99
13478;BME280;12598;62.382;17.344;2023-11-18T00:24:22;102103.22;;;14.06;17.90
13478;BME280;12598;62.382;17.344;2023-11-18T00:25:25;102104.06;;;14.07;17.92
13478;BME280;12598;62.382;17.344;2023-11-18T00:26:27;102104.16;;;14.05;17.95
13478;BME280;12598;62.382;17.344;2023-11-18T00:27:33;102091.81;;;14.04;17.66
13478;BME280;12598;62.382;17.344;2023-11-18T00:28:37;102102.34;;;14.06;17.63
13478;BME280;12598;62.382;17.344;2023-11-18T00:29:39;102061.22;;;13.82;17.59
13478;BME280;12598;62.382;17.344;2023-11-18T00:30:41;102095.41;;;14.03;17.70
13478;BME280;12598;62.382;17.344;2023-11-18T00:31:43;102096.50;;;13.99;17.96
13478;BME280;12598;62.382;17.344;2023-11-18T00:32:45;102096.63;;;13.98;17.98
13478;BME280;12598;62.382;17.344;2023-11-18T00:33:47;102103.53;;;14.00;18.28
13478;BME280;12598;62.382;17.344;2023-11-18T00:34:49;102101.00;;;13.99;18.24
13478;BME280;12598;62.382;17.344;2023-11-18T00:35:50;102101.84;;;13.99;18.10
13478;BME280;12598;62.382;17.344;2023-11-18T00:36:52;102089.66;;;13.95;18.13
13478;BME280;12598;62.382;17.344;2023-11-18T00:37:54;102087.00;;;13.95;17.89
13478;BME280;12598;62.382;17.344;2023-11-18T00:38:56;102082.63;;;13.94;18.00
13478;BME280;12598;62.382;17.344;2023-11-18T00:39:58;102096.03;;;13.93;18.12
13478;BME280;12598;62.382;17.344;2023-11-18T00:41:01;102088.13;;;13.91;18.06
13478;BME280;12598;62.382;17.344;2023-11-18T00:42:03;102096.88;;;13.93;18.10
13478;BME280;12598;62.382;17.344;2023-11-18T00:43:05;102061.09;;;13.69;18.25
13478;BME280;12598;62.382;17.344;2023-11-18T00:44:07;102097.94;;;13.91;18.13
13478;BME280;12598;62.382;17.344;2023-11-18T00:45:10;102100.84;;;13.86;18.20
13478;BME280;12598;62.382;17.344;2023-11-18T00:46:14;102112.16;;;13.90;17.97
13478;BME280;12598;62.382;17.344;2023-11-18T00:47:16;102109.56;;;13.88;17.93
13478;BME280;12598;62.382;17.344;2023-11-18T00:48:18;102094.16;;;13.79;18.16
13478;BME280;12598;62.382;17.344;2023-11-18T00:49:19;102086.44;;;13.75;18.05
13478;BME280;12598;62.382;17.344;2023-11-18T00:50:21;102107.09;;;13.85;17.85
13478;BME280;12598;62.382;17.344;2023-11-18T00:51:23;102111.56;;;13.85;18.46
13478;BME280;12598;62.382;17.344;2023-11-18T00:52:25;102085.97;;;13.68;17.94
13478;BME280;12598;62.382;17.344;2023-11-18T00:53:26;102113.72;;;13.78;18.17
13478;BME280;12598;62.382;17.344;2023-11-18T00:54:28;102114.38;;;13.82;17.84
13478;BME280;12598;62.382;17.344;2023-11-18T00:55:31;102111.72;;;13.82;18.14
13478;BME280;12598;62.382;17.344;2023-11-18T00:56:33;102109.41;;;13.76;18.20
13478;BME280;12598;62.382;17.344;2023-11-18T00:57:36;102117.16;;;13.80;17.88
13478;BME280;12598;62.382;17.344;2023-11-18T00:58:40;102098.31;;;13.69;17.98
13478;BME280;12598;62.382;17.344;2023-11-18T00:59:42;102113.63;;;13.80;17.90
13478;BME280;12598;62.382;17.344;2023-11-18T01:00:45;102123.41;;;13.79;18.29
13478;BME280;12598;62.382;17.344;2023-11-18T01:01:47;102120.75;;;13.79;17.98
13478;BME280;12598;62.382;17.344;2023-11-18T01:02:51;102122.53;;;13.79;18.44
13478;BME280;12598;62.382;17.344;2023-11-18T01:03:54;102123.47;;;13.78;17.92
13478;BME280;12598;62.382;17.344;2023-11-18T01:04:56;102121.88;;;13.75;18.04
13478;BME280;12598;62.382;17.344;2023-11-18T01:05:58;102118.50;;;13.72;18.13
13478;BME280;12598;62.382;17.344;2023-11-18T01:07:00;102136.09;;;13.74;18.32
13478;BME280;12598;62.382;17.344;2023-11-18T01:08:02;102130.03;;;13.72;18.33
13478;BME280;12598;62.382;17.344;2023-11-18T01:09:04;102131.22;;;13.67;17.96
13478;BME280;12598;62.382;17.344;2023-11-18T01:10:06;102125.66;;;13.71;17.96
13478;BME280;12598;62.382;17.344;2023-11-18T01:11:08;102130.97;;;13.71;18.16
13478;BME280;12598;62.382;17.344;2023-11-18T01:12:10;102131.22;;;13.67;18.06
13478;BME280;12598;62.382;17.344;2023-11-18T01:13:12;102135.50;;;13.69;18.15
13478;BME280;12598;62.382;17.344;2023-11-18T01:14:14;102138.25;;;13.68;18.38
13478;BME280;12598;62.382;17.344;2023-11-18T01:15:17;102135.69;;;13.66;18.15
13478;BME280;12598;62.382;17.344;2023-11-18T01:16:18;102137.41;;;13.67;18.32
13478;BME280;12598;62.382;17.344;2023-11-18T01:17:21;102138.34;;;13.66;18.12
13478;BME280;12598;62.382;17.344;2023-11-18T01:18:23;102139.13;;;13.68;18.38
13478;BME280;12598;62.382;17.344;2023-11-18T01:19:25;102137.41;;;13.67;18.56
13478;BME280;12598;62.382;17.344;2023-11-18T01:20:27;102139.19;;;13.67;18.45
13478;BME280;12598;62.382;17.344;2023-11-18T01:21:29;102133.09;;;13.65;18.08
13478;BME280;12598;62.382;17.344;2023-11-18T01:22:31;102139.28;;;13.65;18.20
13478;BME280;12598;62.382;17.344;2023-11-18T01:23:36;102142.78;;;13.66;18.23
13478;BME280;12598;62.382;17.344;2023-11-18T01:24:38;102137.56;;;13.64;18.16
13478;BME280;12598;62.382;17.344;2023-11-18T01:25:40;102139.34;;;13.64;18.16
13478;BME280;12598;62.382;17.344;2023-11-18T01:26:43;102139.47;;;13.62;18.32
13478;BME280;12598;62.382;17.344;2023-11-18T01:27:45;102139.47;;;13.62;18.19
13478;BME280;12598;62.382;17.344;2023-11-18T01:28:50;102141.19;;;13.63;18.09
13478;BME280;12598;62.382;17.344;2023-11-18T01:29:52;102143.06;;;13.61;18.56
13478;BME280;12598;62.382;17.344;2023-11-18T01:30:54;102138.66;;;13.60;18.16
13478;BME280;12598;62.382;17.344;2023-11-18T01:31:56;102134.28;;;13.59;18.01
13478;BME280;12598;62.382;17.344;2023-11-18T01:32:59;102122.22;;;13.54;18.26
13478;BME280;12598;62.382;17.344;2023-11-18T01:34:04;102129.84;;;13.60;18.05
13478;BME280;12598;62.382;17.344;2023-11-18T01:35:06;102136.94;;;13.59;18.08
13478;BME280;12598;62.382;17.344;2023-11-18T01:36:09;102137.88;;;13.58;18.60
13478;BME280;12598;62.382;17.344;2023-11-18T01:37:11;102132.56;;;13.58;18.53
13478;BME280;12598;62.382;17.344;2023-11-18T01:38:13;102127.38;;;13.57;18.56
13478;BME280;12598;62.382;17.344;2023-11-18T01:39:18;102129.44;;;13.52;18.14
13478;BME280;12598;62.382;17.344;2023-11-18T01:40:20;102126.75;;;13.52;18.17
13478;BME280;12598;62.382;17.344;2023-11-18T01:41:22;102125.91;;;13.51;18.20
13478;BME280;12598;62.382;17.344;2023-11-18T01:42:24;102135.41;;;13.55;17.96
13478;BME280;12598;62.382;17.344;2023-11-18T01:43:26;102136.34;;;13.54;18.60
13478;BME280;12598;62.382;17.344;2023-11-18T01:44:29;102134.63;;;13.53;18.65
13478;BME280;12598;62.382;17.344;2023-11-18T01:45:31;102135.50;;;13.54;18.45
13478;BME280;12598;62.382;17.344;2023-11-18T01:46:33;102139.09;;;13.53;18.33
13478;BME280;12598;62.382;17.344;2023-11-18T01:47:38;102128.91;;;13.45;18.30
13478;BME280;12598;62.382;17.344;2023-11-18T01:48:40;102141.84;;;13.51;18.05
13478;BME280;12598;62.382;17.344;2023-11-18T01:49:43;102144.50;;;13.51;18.17
13478;BME280;12598;62.382;17.344;2023-11-18T01:50:45;102147.16;;;13.51;18.18
13478;BME280;12598;62.382;17.344;2023-11-18T01:51:50;102145.44;;;13.50;18.59
13478;BME280;12598;62.382;17.344;2023-11-18T01:52:53;102141.84;;;13.51;18.54
13478;BME280;12598;62.382;17.344;2023-11-18T01:53:57;102138.69;;;13.45;18.05
13478;BME280;12598;62.382;17.344;2023-11-18T01:55:01;102147.25;;;13.50;18.53
13478;BME280;12598;62.382;17.344;2023-11-18T01:56:08;102142.78;;;13.50;18.58
13478;BME280;12598;62.382;17.344;2023-11-18T01:57:10;102149.03;;;13.49;17.93
13478;BME280;12598;62.382;17.344;2023-11-18T01:58:12;102148.25;;;13.47;18.01
13478;BME280;12598;62.382;17.344;2023-11-18T01:59:17;102145.59;;;13.47;18.37
13478;BME280;12598;62.382;17.344;2023-11-18T02:00:24;102141.25;;;13.46;18.53
13478;BME280;12598;62.382;17.344;2023-11-18T02:01:29;102152.81;;;13.45;18.60
13478;BME280;12598;62.382;17.344;2023-11-18T02:02:32;102141.41;;;13.43;18.30
13478;BME280;12598;62.382;17.344;2023-11-18T02:03:35;102139.53;;;13.45;18.55
13478;BME280;12598;62.382;17.344;2023-11-18T02:04:37;102138.94;;;13.40;18.50
13478;BME280;12598;62.382;17.344;2023-11-18T02:05:39;102142.28;;;13.44;18.19
13478;BME280;12598;62.382;17.344;2023-11-18T02:06:43;102138.75;;;13.43;18.29
13478;BME280;12598;62.382;17.344;2023-11-18T02:07:47;102144.94;;;13.44;18.52
13478;BME280;12598;62.382;17.344;2023-11-18T02:08:49;102141.50;;;13.42;18.14
13478;BME280;12598;62.382;17.344;2023-11-18T02:09:51;102144.25;;;13.40;18.49
13478;BME280;12598;62.382;17.344;2023-11-18T02:11:03;102151.25;;;13.41;18.12
13478;BME280;12598;62.382;17.344;2023-11-18T02:12:23;102140.47;;;13.44;18.33
13478;BME280;12598;62.382;17.344;2023-11-18T02:13:31;102145.00;;;13.42;18.25
13478;BME280;12598;62.382;17.344;2023-11-18T02:14:34;102145.78;;;13.44;18.30
13478;BME280;12598;62.382;17.344;2023-11-18T02:15:41;102137.22;;;13.39;18.57
13478;BME280;12598;62.382;17.344;2023-11-18T02:16:44;102134.63;;;13.38;18.49
13478;BME280;12598;62.382;17.344;2023-11-18T02:17:48;102148.59;;;13.41;18.17
13478;BME280;12598;62.382;17.344;2023-11-18T02:18:52;102144.25;;;13.40;18.39
13478;BME280;12598;62.382;17.344;2023-11-18T02:19:58;102139.88;;;13.39;18.31
13478;BME280;12598;62.382;17.344;2023-11-18T02:21:02;102139.88;;;13.39;18.58
13478;BME280;12598;62.382;17.344;2023-11-18T02:22:05;102109.63;;;13.27;18.43
13478;BME280;12598;62.382;17.344;2023-11-18T02:23:09;102123.66;;;13.28;18.38
13478;BME280;12598;62.382;17.344;2023-11-18T02:24:24;102145.94;;;13.41;18.35
13478;BME280;12598;62.382;17.344;2023-11-18T02:25:27;102143.28;;;13.41;18.24
13478;BME280;12598;62.382;17.344;2023-11-18T02:26:31;102137.13;;;13.41;18.06
13478;BME280;12598;62.382;17.344;2023-11-18T02:27:33;102145.19;;;13.39;18.43
13478;BME280;12598;62.382;17.344;2023-11-18T02:28:35;102135.50;;;13.38;18.00
13478;BME280;12598;62.382;17.344;2023-11-18T02:29:39;102140.03;;;13.36;18.51
13478;BME280;12598;62.382;17.344;2023-11-18T02:30:44;102139.09;;;13.37;18.71
13478;BME280;12598;62.382;17.344;2023-11-18T02:31:49;102125.88;;;13.36;18.51
13478;BME280;12598;62.382;17.344;2023-11-18T02:32:59;102127.59;;;13.37;18.11
13478;BME280;12598;62.382;17.344;2023-11-18T02:34:09;102125.81;;;13.37;18.25
13478;BME280;12598;62.382;17.344;2023-11-18T02:35:20;102125.81;;;13.37;18.54
13478;BME280;12598;62.382;17.344;2023-11-18T02:36:31;102125.72;;;13.39;18.41
13478;BME280;12598;62.382;17.344;2023-11-18T02:37:39;102124.88;;;13.38;18.81
13478;BME280;12598;62.382;17.344;2023-11-18T02:38:47;102121.78;;;13.30;18.28
13478;BME280;12598;62.382;17.344;2023-11-18T02:39:53;102124.16;;;13.35;18.65
13478;BME280;12598;62.382;17.344;2023-11-18T02:41:04;102128.53;;;13.36;18.59
13478;BME280;12598;62.382;17.344;2023-11-18T02:42:12;102121.44;;;13.36;18.59
13478;BME280;12598;62.382;17.344;2023-11-18T02:43:14;102125.03;;;13.35;18.46
13478;BME280;12598;62.382;17.344;2023-11-18T02:44:17;102115.88;;;13.26;18.59
13478;BME280;12598;62.382;17.344;2023-11-18T02:45:21;102114.94;;;13.27;18.65
13478;BME280;12598;62.382;17.344;2023-11-18T02:46:24;102137.63;;;13.32;18.58
13478;BME280;12598;62.382;17.344;2023-11-18T02:47:29;102139.44;;;13.31;18.57
13478;BME280;12598;62.382;17.344;2023-11-18T02:48:31;102132.47;;;13.29;18.36
13478;BME280;12598;62.382;17.344;2023-11-18T02:49:37;102134.28;;;13.28;18.47
13478;BME280;12598;62.382;17.344;2023-11-18T02:50:39;102124.84;;;13.23;18.47
13478;BME280;12598;62.382;17.344;2023-11-18T02:51:43;102129.06;;;13.27;18.51
13478;BME280;12598;62.382;17.344;2023-11-18T02:52:49;102135.13;;;13.29;18.50
13478;BME280;12598;62.382;17.344;2023-11-18T02:53:51;102134.28;;;13.28;18.54
13478;BME280;12598;62.382;17.344;2023-11-18T02:54:53;102123.75;;;13.27;18.23
13478;BME280;12598;62.382;17.344;2023-11-18T02:55:55;102120.25;;;13.27;18.74
13478;BME280;12598;62.382;17.344;2023-11-18T02:57:03;102126.31;;;13.28;18.74
13478;BME280;12598;62.382;17.344;2023-11-18T02:58:05;102126.41;;;13.27;18.44
13478;BME280;12598;62.382;17.344;2023-11-18T02:59:08;102126.41;;;13.27;18.29
13478;BME280;12598;62.382;17.344;2023-11-18T03:00:12;102117.16;;;13.19;18.64
13478;BME280;12598;62.382;17.344;2023-11-18T03:01:19;102129.91;;;13.27;18.73
13478;BME280;12598;62.382;17.344;2023-11-18T03:02:21;102124.69;;;13.26;18.69
13478;BME280;12598;62.382;17.344;2023-11-18T03:03:24;102119.47;;;13.25;18.38
13478;BME280;12598;62.382;17.344;2023-11-18T03:04:26;102117.75;;;13.24;18.75
13478;BME280;12598;62.382;17.344;2023-11-18T03:05:27;102120.41;;;13.24;18.24
13478;BME280;12598;62.382;17.344;2023-11-18T03:06:29;102116.88;;;13.23;18.16
13478;BME280;12598;62.382;17.344;2023-11-18T03:07:31;102118.69;;;13.23;18.80
13478;BME280;12598;62.382;17.344;2023-11-18T03:08:33;102110.97;;;13.18;18.62
13478;BME280;12598;62.382;17.344;2023-11-18T03:09:35;102123.13;;;13.22;18.26
13478;BME280;12598;62.382;17.344;2023-11-18T03:10:39;102113.38;;;13.23;18.96
13478;BME280;12598;62.382;17.344;2023-11-18T03:11:43;102099.63;;;13.15;18.77
13478;BME280;12598;62.382;17.344;2023-11-18T03:12:47;102112.63;;;13.21;18.25
13478;BME280;12598;62.382;17.344;2023-11-18T03:13:49;102107.19;;;13.22;18.58
13478;BME280;12598;62.382;17.344;2023-11-18T03:14:51;102115.28;;;13.21;18.90
13478;BME280;12598;62.382;17.344;2023-11-18T03:15:52;102111.75;;;13.20;18.47
13478;BME280;12598;62.382;17.344;2023-11-18T03:16:54;102114.41;;;13.20;18.94
13478;BME280;12598;62.382;17.344;2023-11-18T03:17:57;102117.06;;;13.20;18.64
13478;BME280;12598;62.382;17.344;2023-11-18T03:18:59;102117.06;;;13.20;18.38
13478;BME280;12598;62.382;17.344;2023-11-18T03:20:01;102121.53;;;13.20;18.83
13478;BME280;12598;62.382;17.344;2023-11-18T03:21:03;102117.16;;;13.19;18.65
13478;BME280;12598;62.382;17.344;2023-11-18T03:22:05;102119.81;;;13.19;18.41
13478;BME280;12598;62.382;17.344;2023-11-18T03:23:07;102123.31;;;13.19;18.51
13478;BME280;12598;62.382;17.344;2023-11-18T03:24:11;102106.00;;;13.12;18.69
13478;BME280;12598;62.382;17.344;2023-11-18T03:25:13;102118.06;;;13.18;18.68
13478;BME280;12598;62.382;17.344;2023-11-18T03:26:15;102111.03;;;13.17;18.41
13478;BME280;12598;62.382;17.344;2023-11-18T03:27:17;102109.25;;;13.17;18.65
13478;BME280;12598;62.382;17.344;2023-11-18T03:28:20;102111.84;;;13.19;18.79
13478;BME280;12598;62.382;17.344;2023-11-18T03:29:22;102108.56;;;13.14;18.42
13478;BME280;12598;62.382;17.344;2023-11-18T03:30:24;102108.38;;;13.17;18.69
13478;BME280;12598;62.382;17.344;2023-11-18T03:31:26;102101.53;;;13.13;18.72
13478;BME280;12598;62.382;17.344;2023-11-18T03:32:30;102106.78;;;13.14;18.90
13478;BME280;12598;62.382;17.344;2023-11-18T03:33:33;102096.31;;;13.11;18.32
13478;BME280;12598;62.382;17.344;2023-11-18T03:34:35;102098.97;;;13.11;18.77
13478;BME280;12598;62.382;17.344;2023-11-18T03:35:37;102082.50;;;13.05;18.68
13478;BME280;12598;62.382;17.344;2023-11-18T03:36:39;102096.97;;;13.15;18.27
13478;BME280;12598;62.382;17.344;2023-11-18T03:37:41;102099.63;;;13.15;18.29
13478;BME280;12598;62.382;17.344;2023-11-18T03:38:45;102099.81;;;13.12;18.48
13478;BME280;12598;62.382;17.344;2023-11-18T03:39:47;102103.06;;;13.17;18.76
13478;BME280;12598;62.382;17.344;2023-11-18T03:40:49;102108.47;;;13.15;18.35
13478;BME280;12598;62.382;17.344;2023-11-18T03:41:51;102105.81;;;13.15;18.61
13478;BME280;12598;62.382;17.344;2023-11-18T03:42:53;102104.94;;;13.15;18.28
13478;BME280;12598;62.382;17.344;2023-11-18T03:43:55;102097.94;;;13.14;18.73
13478;BME280;12598;62.382;17.344;2023-11-18T03:44:57;102103.34;;;13.12;18.88
13478;BME280;12598;62.382;17.344;2023-11-18T03:45:59;102099.22;;;13.07;18.92
13478;BME280;12598;62.382;17.344;2023-11-18T03:47:01;102106.84;;;13.13;18.77
13478;BME280;12598;62.382;17.344;2023-11-18T03:48:04;102113.03;;;13.13;18.94
13478;BME280;12598;62.382;17.344;2023-11-18T03:49:07;102108.56;;;13.14;18.55
13478;BME280;12598;62.382;17.344;2023-11-18T03:50:09;102110.44;;;13.12;18.67
13478;BME280;12598;62.382;17.344;2023-11-18T03:51:12;102112.16;;;13.13;18.59
13478;BME280;12598;62.382;17.344;2023-11-18T03:52:14;102103.41;;;13.11;18.37
13478;BME280;12598;62.382;17.344;2023-11-18T03:53:16;102106.00;;;13.12;18.74
13478;BME280;12598;62.382;17.344;2023-11-18T03:54:18;102113.03;;;13.13;18.75
13478;BME280;12598;62.382;17.344;2023-11-18T03:55:20;102101.53;;;13.13;18.26
13478;BME280;12598;62.382;17.344;2023-11-18T03:56:22;102106.00;;;13.12;18.35
13478;BME280;12598;62.382;17.344;2023-11-18T03:57:23;102106.84;;;13.13;18.21
13478;BME280;12598;62.382;17.344;2023-11-18T03:58:25;102098.88;;;13.13;18.74
13478;BME280;12598;62.382;17.344;2023-11-18T03:59:27;102103.34;;;13.12;18.63
13478;BME280;12598;62.382;17.344;2023-11-18T04:00:29;102097.16;;;13.12;18.56
13478;BME280;12598;62.382;17.344;2023-11-18T04:01:31;102088.59;;;13.07;18.67
13478;BME280;12598;62.382;17.344;2023-11-18T04:02:34;102101.53;;;13.13;18.58
13478;BME280;12598;62.382;17.344;2023-11-18T04:03:37;102063.66;;;12.94;18.66
13478;BME280;12598;62.382;17.344;2023-11-18T04:04:39;102056.94;;;12.87;18.77
13478;BME280;12598;62.382;17.344;2023-11-18T04:05:41;102096.31;;;13.11;18.49
13478;BME280;12598;62.382;17.344;2023-11-18T04:06:43;102102.63;;;13.09;18.49
13478;BME280;12598;62.382;17.344;2023-11-18T04:07:45;102091.06;;;13.10;18.71
13478;BME280;12598;62.382;17.344;2023-11-18T04:08:48;102097.25;;;13.10;18.36
13478;BME280;12598;62.382;17.344;2023-11-18T04:09:50;102089.34;;;13.09;18.66
13478;BME280;12598;62.382;17.344;2023-11-18T04:10:52;102094.59;;;13.10;18.62
13478;BME280;12598;62.382;17.344;2023-11-18T04:11:54;102092.19;;;13.06;18.99
13478;BME280;12598;62.382;17.344;2023-11-18T04:12:55;102091.06;;;13.10;18.28
13478;BME280;12598;62.382;17.344;2023-11-18T04:13:58;102091.06;;;13.10;18.56
13478;BME280;12598;62.382;17.344;2023-11-18T04:15:00;102071.28;;;13.00;18.67
13478;BME280;12598;62.382;17.344;2023-11-18T04:16:02;102089.34;;;13.09;18.88
13478;BME280;12598;62.382;17.344;2023-11-18T04:17:05;102091.06;;;13.10;18.28
13478;BME280;12598;62.382;17.344;2023-11-18T04:18:08;102090.22;;;13.09;18.45
13478;BME280;12598;62.382;17.344;2023-11-18T04:19:09;102084.94;;;13.09;18.42
13478;BME280;12598;62.382;17.344;2023-11-18T04:20:11;102094.66;;;13.09;18.80
13478;BME280;12598;62.382;17.344;2023-11-18T04:21:13;102092.00;;;13.09;18.53
13478;BME280;12598;62.382;17.344;2023-11-18T04:22:15;102098.28;;;13.08;18.78
13478;BME280;12598;62.382;17.344;2023-11-18T04:23:17;102092.97;;;13.08;18.85
13478;BME280;12598;62.382;17.344;2023-11-18T04:24:19;102099.13;;;13.08;18.91
13478;BME280;12598;62.382;17.344;2023-11-18T04:25:21;102100.91;;;13.08;18.95
13478;BME280;12598;62.382;17.344;2023-11-18T04:26:23;102099.13;;;13.08;18.58
13478;BME280;12598;62.382;17.344;2023-11-18T04:27:26;102103.56;;;13.08;18.41
13478;BME280;12598;62.382;17.344;2023-11-18T04:28:28;102084.72;;;12.97;18.44
13478;BME280;12598;62.382;17.344;2023-11-18T04:29:32;102103.56;;;13.08;18.82
13478;BME280;12598;62.382;17.344;2023-11-18T04:30:33;102091.25;;;13.07;18.31
13478;BME280;12598;62.382;17.344;2023-11-18T04:31:35;102101.03;;;13.06;18.43
13478;BME280;12598;62.382;17.344;2023-11-18T04:32:38;102100.16;;;13.06;18.51
13478;BME280;12598;62.382;17.344;2023-11-18T04:33:40;102094.84;;;13.06;18.89
13478;BME280;12598;62.382;17.344;2023-11-18T04:34:42;102098.44;;;13.05;18.94
13478;BME280;12598;62.382;17.344;2023-11-18T04:35:46;102098.53;;;13.03;18.62
13478;BME280;12598;62.382;17.344;2023-11-18T04:36:47;102067.63;;;12.85;18.59
13478;BME280;12598;62.382;17.344;2023-11-18T04:37:49;102102.91;;;13.04;18.98
13478;BME280;12598;62.382;17.344;2023-11-18T04:38:51;102090.03;;;12.97;18.55
13478;BME280;12598;62.382;17.344;2023-11-18T04:39:53;102105.63;;;13.03;18.91
13478;BME280;12598;62.382;17.344;2023-11-18T04:40:56;102096.72;;;13.04;18.76
13478;BME280;12598;62.382;17.344;2023-11-18T04:41:58;102102.03;;;13.04;19.03
13478;BME280;12598;62.382;17.344;2023-11-18T04:43:01;102100.31;;;13.03;18.49
13478;BME280;12598;62.382;17.344;2023-11-18T04:44:03;102095.19;;;13.00;18.75
13478;BME280;12598;62.382;17.344;2023-11-18T04:45:05;102101.19;;;13.03;18.27
13478;BME280;12598;62.382;17.344;2023-11-18T04:46:08;102110.94;;;13.03;18.71
13478;BME280;12598;62.382;17.344;2023-11-18T04:47:09;102105.63;;;13.03;18.61
13478;BME280;12598;62.382;17.344;2023-11-18T04:48:12;102113.59;;;13.03;18.38
13478;BME280;12598;62.382;17.344;2023-11-18T04:49:14;102110.94;;;13.03;18.42
13478;BME280;12598;62.382;17.344;2023-11-18T04:50:16;102117.13;;;13.03;18.59
13478;BME280;12598;62.382;17.344;2023-11-18T04:51:18;102122.50;;;13.02;18.96
13478;BME280;12598;62.382;17.344;2023-11-18T04:52:20;102101.75;;;12.93;19.02
13478;BME280;12598;62.382;17.344;2023-11-18T04:53:22;102089.91;;;12.83;18.60
13478;BME280;12598;62.382;17.344;2023-11-18T04:54:24;102125.25;;;13.00;18.45
13478;BME280;12598;62.382;17.344;2023-11-18T04:55:26;102109.72;;;12.93;18.55
13478;BME280;12598;62.382;17.344;2023-11-18T04:56:28;102135.78;;;13.02;18.63
13478;BME280;12598;62.382;17.344;2023-11-18T04:57:29;102134.94;;;13.01;18.95
13478;BME280;12598;62.382;17.344;2023-11-18T04:58:31;102132.34;;;13.00;18.40
13478;BME280;12598;62.382;17.344;2023-11-18T04:59:33;102133.22;;;13.00;19.02
13478;BME280;12598;62.382;17.344;2023-11-18T05:00:36;102134.16;;;12.99;18.42
13478;BME280;12598;62.382;17.344;2023-11-18T05:01:39;102135.78;;;13.02;18.30
13478;BME280;12598;62.382;17.344;2023-11-18T05:02:42;102137.59;;;13.01;18.61
13478;BME280;12598;62.382;17.344;2023-11-18T05:03:44;102139.38;;;13.01;18.92
13478;BME280;12598;62.382;17.344;2023-11-18T05:04:46;102138.59;;;12.99;18.89
13478;BME280;12598;62.382;17.344;2023-11-18T05:05:48;102135.00;;;13.00;18.86
13478;BME280;12598;62.382;17.344;2023-11-18T05:06:50;102137.66;;;13.00;18.59
13478;BME280;12598;62.382;17.344;2023-11-18T05:07:53;102135.94;;;12.99;18.31
13478;BME280;12598;62.382;17.344;2023-11-18T05:08:54;102137.75;;;12.98;18.51
13478;BME280;12598;62.382;17.344;2023-11-18T05:09:56;102121.28;;;12.92;18.13
13478;BME280;12598;62.382;17.344;2023-11-18T05:10:58;102141.25;;;12.99;19.02
13478;BME280;12598;62.382;17.344;2023-11-18T05:12:00;102128.31;;;12.93;18.57
13478;BME280;12598;62.382;17.344;2023-11-18T05:13:02;102118.75;;;12.89;18.43
13478;BME280;12598;62.382;17.344;2023-11-18T05:14:04;102134.22;;;12.98;18.47
13478;BME280;12598;62.382;17.344;2023-11-18T05:15:06;102144.00;;;12.97;18.97
13478;BME280;12598;62.382;17.344;2023-11-18T05:16:11;102136.88;;;12.98;18.65
13478;BME280;12598;62.382;17.344;2023-11-18T05:17:13;102139.53;;;12.98;18.38
13478;BME280;12598;62.382;17.344;2023-11-18T05:18:15;102144.84;;;12.98;18.80
13478;BME280;12598;62.382;17.344;2023-11-18T05:19:17;102139.53;;;12.98;19.11
13478;BME280;12598;62.382;17.344;2023-11-18T05:20:20;102132.81;;;12.91;18.43
13478;BME280;12598;62.382;17.344;2023-11-18T05:21:22;102137.81;;;12.97;18.49
13478;BME280;12598;62.382;17.344;2023-11-18T05:22:24;102143.13;;;12.97;18.95
13478;BME280;12598;62.382;17.344;2023-11-18T05:23:26;102129.38;;;12.89;18.74
13478;BME280;12598;62.382;17.344;2023-11-18T05:24:30;102143.13;;;12.97;18.51